Station Historical Data
Daily Summary for May 17, 2012 Units:  Both    English   Metric
« Previous Day
Next Day »
Daily Weekly Monthly Yearly Custom
  High: Low: Average:
Temperature: 84.0 °F /  28.9 °C 57.4 °F /  14.1 °C 70.2 °F /  21.2 °C
Dew Point: 67.0 °F /  19.4 °C 53.3 °F /  11.8 °C 58.7 °F /  14.8 °C
Humidity: 90% 41% 70%
Wind Speed: 13.0mph /  20.9km/h - 1.4mph /  2.3km/h
Wind Gust: 15.0mph /  24.1km/h - -
Wind- - SSE
Pressure: 29.96 in /  1014.4 hPa 29.89 in /  1012.1 hPa -
Precipitation: 0.48 in /  12.19 mm    
Historical Graphs
 
 
Tabular Data for May 17, 2012
Time Temperature Dew Point Pressure Wind Wind Speed Wind Gust Humidity Rainfall Rate (Hourly) Conditions
00:00 62.5 °F /  16.9 °C 56.6 °F /  13.7 °C 29.93in /  1013.4hPa Calm     81% 0.00in /  0mm
00:01 62.5 °F /  16.9 °C 56.6 °F /  13.7 °C 29.93in /  1013.4hPa Calm     81% 0.00in /  0mm
00:06 62.5 °F /  16.9 °C 56.9 °F /  13.8 °C 29.93in /  1013.4hPa Calm     82% 0.00in /  0mm
00:11 62.6 °F /  17 °C 56.7 °F /  13.7 °C 29.93in /  1013.4hPa Calm     81% 0.00in /  0mm
00:16 62.8 °F /  17.1 °C 56.9 °F /  13.8 °C 29.93in /  1013.4hPa Calm     81% 0.00in /  0mm
00:21 62.7 °F /  17.1 °C 56.5 °F /  13.6 °C 29.93in /  1013.4hPa Calm     80% 0.00in /  0mm
00:26 62.9 °F /  17.2 °C 55.9 °F /  13.3 °C 29.93in /  1013.4hPa Calm     78% 0.00in /  0mm
00:31 62.9 °F /  17.2 °C 55.6 °F /  13.1 °C 29.93in /  1013.4hPa Calm     77% 0.00in /  0mm
00:36 62.5 °F /  16.9 °C 55.6 °F /  13.1 °C 29.93in /  1013.4hPa Calm     78% 0.00in /  0mm
00:41 62.4 °F /  16.9 °C 56.8 °F /  13.8 °C 29.93in /  1013.4hPa Calm     82% 0.00in /  0mm
00:46 62.2 °F /  16.8 °C 57.3 °F /  14.1 °C 29.93in /  1013.4hPa Calm     84% 0.00in /  0mm
00:51 62.0 °F /  16.7 °C 57.1 °F /  13.9 °C 29.93in /  1013.4hPa WNW 1.0mph /  1.6km/h 1.0mph /  1.6km/h 84% 0.00in /  0mm
00:56 61.8 °F /  16.6 °C 57.2 °F /  14 °C 29.93in /  1013.4hPa Calm     85% 0.00in /  0mm
01:01 61.2 °F /  16.2 °C 57.3 °F /  14.1 °C 29.93in /  1013.4hPa Calm     87% 0.00in /  0mm
01:06 60.7 °F /  15.9 °C 57.1 °F /  13.9 °C 29.93in /  1013.4hPa Calm     88% 0.00in /  0mm
01:11 60.3 °F /  15.7 °C 56.7 °F /  13.7 °C 29.93in /  1013.4hPa Calm     88% 0.00in /  0mm
01:16 60.1 °F /  15.6 °C 56.5 °F /  13.6 °C 29.93in /  1013.4hPa Calm     88% 0.00in /  0mm
01:21 59.8 °F /  15.4 °C 56.6 °F /  13.7 °C 29.93in /  1013.4hPa Calm     89% 0.00in /  0mm
01:26 59.6 °F /  15.3 °C 56.7 °F /  13.7 °C 29.93in /  1013.4hPa Calm     90% 0.00in /  0mm
01:31 59.6 °F /  15.3 °C 56.4 °F /  13.6 °C 29.93in /  1013.4hPa Calm     89% 0.00in /  0mm
01:36 59.7 °F /  15.4 °C 56.5 °F /  13.6 °C 29.93in /  1013.4hPa Calm     89% 0.00in /  0mm
01:41 59.6 °F /  15.3 °C 56.0 °F /  13.3 °C 29.92in /  1013.1hPa Calm     88% 0.00in /  0mm
01:46 59.8 °F /  15.4 °C 56.2 °F /  13.4 °C 29.93in /  1013.4hPa Calm     88% 0.00in /  0mm
01:51 59.9 °F /  15.5 °C 56.0 °F /  13.3 °C 29.92in /  1013.1hPa Calm     87% 0.00in /  0mm
01:56 59.7 °F /  15.4 °C 55.8 °F /  13.2 °C 29.92in /  1013.1hPa Calm     87% 0.00in /  0mm
02:01 59.5 °F /  15.3 °C 55.6 °F /  13.1 °C 29.92in /  1013.1hPa Calm     87% 0.00in /  0mm
02:06 59.6 °F /  15.3 °C 55.7 °F /  13.2 °C 29.92in /  1013.1hPa Calm     87% 0.00in /  0mm
02:11 60.1 °F /  15.6 °C 56.5 °F /  13.6 °C 29.92in /  1013.1hPa Calm     88% 0.00in /  0mm
02:16 60.3 °F /  15.7 °C 56.7 °F /  13.7 °C 29.92in /  1013.1hPa Calm     88% 0.00in /  0mm
02:22 60.1 °F /  15.6 °C 56.5 °F /  13.6 °C 29.92in /  1013.1hPa Calm   1.0mph /  1.6km/h 88% 0.00in /  0mm
02:27 59.9 °F /  15.5 °C 56.0 °F /  13.3 °C 29.92in /  1013.1hPa Calm     87% 0.00in /  0mm
02:32 59.8 °F /  15.4 °C 55.6 °F /  13.1 °C 29.92in /  1013.1hPa Calm     86% 0.00in /  0mm
02:37 60.1 °F /  15.6 °C 55.9 °F /  13.3 °C 29.92in /  1013.1hPa Calm     86% 0.00in /  0mm
02:42 60.1 °F /  15.6 °C 55.3 °F /  12.9 °C 29.92in /  1013.1hPa Calm     84% 0.00in /  0mm
02:47 60.2 °F /  15.7 °C 55.3 °F /  12.9 °C 29.92in /  1013.1hPa Calm     84% 0.00in /  0mm
02:52 60.3 °F /  15.7 °C 55.5 °F /  13.1 °C 29.91in /  1012.8hPa Calm     84% 0.00in /  0mm
02:57 60.3 °F /  15.7 °C 55.5 °F /  13.1 °C 29.92in /  1013.1hPa Calm     84% 0.00in /  0mm
03:02 60.3 °F /  15.7 °C 54.8 °F /  12.7 °C 29.92in /  1013.1hPa Calm     82% 0.00in /  0mm
03:07 60.3 °F /  15.7 °C 55.1 °F /  12.8 °C 29.92in /  1013.1hPa Calm     83% 0.00in /  0mm
03:12 60.4 °F /  15.8 °C 55.2 °F /  12.9 °C 29.92in /  1013.1hPa Calm     83% 0.00in /  0mm
03:17 60.3 °F /  15.7 °C 54.8 °F /  12.7 °C 29.92in /  1013.1hPa Calm     82% 0.00in /  0mm
03:22 60.0 °F /  15.6 °C 54.5 °F /  12.5 °C 29.92in /  1013.1hPa Calm     82% 0.00in /  0mm
03:27 60.0 °F /  15.6 °C 55.2 °F /  12.9 °C 29.92in /  1013.1hPa Calm     84% 0.00in /  0mm
03:32 59.9 °F /  15.5 °C 54.7 °F /  12.6 °C 29.92in /  1013.1hPa Calm     83% 0.00in /  0mm
03:37 59.9 °F /  15.5 °C 55.7 °F /  13.2 °C 29.92in /  1013.1hPa Calm   1.0mph /  1.6km/h 86% 0.00in /  0mm
03:42 59.7 °F /  15.4 °C 55.2 °F /  12.9 °C 29.92in /  1013.1hPa Calm     85% 0.00in /  0mm
03:47 59.5 °F /  15.3 °C 54.7 °F /  12.6 °C 29.92in /  1013.1hPa Calm     84% 0.00in /  0mm
03:52 59.3 °F /  15.2 °C 54.5 °F /  12.5 °C 29.92in /  1013.1hPa Calm     84% 0.00in /  0mm
03:57 59.1 °F /  15.1 °C 54.0 °F /  12.2 °C 29.92in /  1013.1hPa Calm     83% 0.00in /  0mm
04:02 59.4 °F /  15.2 °C 53.9 °F /  12.2 °C 29.92in /  1013.1hPa Calm     82% 0.00in /  0mm
04:07 60.7 °F /  15.9 °C 54.5 °F /  12.5 °C 29.92in /  1013.1hPa WNW 1.0mph /  1.6km/h 1.0mph /  1.6km/h 80% 0.00in /  0mm
04:12 62.3 °F /  16.8 °C 54.7 °F /  12.6 °C 29.92in /  1013.1hPa WNW 1.0mph /  1.6km/h 1.0mph /  1.6km/h 76% 0.00in /  0mm
04:17 62.8 °F /  17.1 °C 54.4 °F /  12.4 °C 29.92in /  1013.1hPa Calm     74% 0.00in /  0mm
04:22 62.5 °F /  16.9 °C 54.5 °F /  12.5 °C 29.92in /  1013.1hPa Calm     75% 0.00in /  0mm
04:27 61.8 °F /  16.6 °C 54.5 °F /  12.5 °C 29.92in /  1013.1hPa WNW 1.0mph /  1.6km/h 1.0mph /  1.6km/h 77% 0.00in /  0mm
04:32 61.1 °F /  16.2 °C 55.6 °F /  13.1 °C 29.92in /  1013.1hPa Calm   1.0mph /  1.6km/h 82% 0.00in /  0mm
04:37 60.3 °F /  15.7 °C 55.5 °F /  13.1 °C 29.92in /  1013.1hPa NNW 1.0mph /  1.6km/h 1.0mph /  1.6km/h 84% 0.00in /  0mm
04:42 59.6 °F /  15.3 °C 55.1 °F /  12.8 °C 29.92in /  1013.1hPa Calm     85% 0.00in /  0mm
04:47 59.1 °F /  15.1 °C 54.9 °F /  12.7 °C 29.93in /  1013.4hPa Calm     86% 0.00in /  0mm
04:53 59.0 °F /  15 °C 54.8 °F /  12.7 °C 29.93in /  1013.4hPa Calm     86% 0.00in /  0mm
04:58 58.7 °F /  14.8 °C 54.5 °F /  12.5 °C 29.93in /  1013.4hPa Calm     86% 0.00in /  0mm
05:03 58.4 °F /  14.7 °C 54.2 °F /  12.3 °C 29.93in /  1013.4hPa Calm     86% 0.00in /  0mm
05:08 57.9 °F /  14.4 °C 53.7 °F /  12.1 °C 29.93in /  1013.4hPa Calm     86% 0.00in /  0mm
05:13 57.8 °F /  14.3 °C 53.7 °F /  12.1 °C 29.93in /  1013.4hPa Calm     86% 0.00in /  0mm
05:18 57.8 °F /  14.3 °C 54.0 °F /  12.2 °C 29.93in /  1013.4hPa Calm   1.0mph /  1.6km/h 87% 0.00in /  0mm
05:23 58.2 °F /  14.6 °C 54.4 °F /  12.4 °C 29.93in /  1013.4hPa Calm   1.0mph /  1.6km/h 87% 0.00in /  0mm
05:28 58.3 °F /  14.6 °C 54.1 °F /  12.3 °C 29.93in /  1013.4hPa Calm   1.0mph /  1.6km/h 86% 0.00in /  0mm
05:33 58.3 °F /  14.6 °C 54.5 °F /  12.5 °C 29.93in /  1013.4hPa Calm     87% 0.00in /  0mm
05:38 58.4 °F /  14.7 °C 54.2 °F /  12.3 °C 29.93in /  1013.4hPa Calm     86% 0.00in /  0mm
05:43 58.1 °F /  14.5 °C 53.9 °F /  12.2 °C 29.93in /  1013.4hPa Calm     86% 0.00in /  0mm
05:48 58.0 °F /  14.4 °C 53.8 °F /  12.1 °C 29.93in /  1013.4hPa Calm     86% 0.00in /  0mm
05:53 57.8 °F /  14.3 °C 53.7 °F /  12.1 °C 29.93in /  1013.4hPa Calm     86% 0.00in /  0mm
05:58 57.6 °F /  14.2 °C 53.5 °F /  11.9 °C 29.93in /  1013.4hPa Calm     86% 0.00in /  0mm
06:03 57.8 °F /  14.3 °C 53.3 °F /  11.8 °C 29.93in /  1013.4hPa Calm     85% 0.00in /  0mm
06:08 58.2 °F /  14.6 °C 53.7 °F /  12.1 °C 29.93in /  1013.4hPa Calm     85% 0.00in /  0mm
06:13 58.5 °F /  14.7 °C 54.0 °F /  12.2 °C 29.93in /  1013.4hPa Calm     85% 0.00in /  0mm
06:18 58.6 °F /  14.8 °C 54.1 °F /  12.3 °C 29.93in /  1013.4hPa Calm     85% 0.00in /  0mm
06:23 58.4 °F /  14.7 °C 54.5 °F /  12.5 °C 29.93in /  1013.4hPa NNW 1.0mph /  1.6km/h 2.0mph /  3.2km/h 87% 0.00in /  0mm
06:29 57.7 °F /  14.3 °C 54.2 °F /  12.3 °C 29.93in /  1013.4hPa NNW 1.0mph /  1.6km/h 2.0mph /  3.2km/h 88% 0.00in /  0mm
06:34 57.4 °F /  14.1 °C 54.2 °F /  12.3 °C 29.93in /  1013.4hPa Calm   1.0mph /  1.6km/h 89% 0.00in /  0mm
06:39 57.4 °F /  14.1 °C 54.2 °F /  12.3 °C 29.93in /  1013.4hPa Calm     89% 0.00in /  0mm
06:44 57.5 °F /  14.2 °C 54.0 °F /  12.2 °C 29.93in /  1013.4hPa Calm     88% 0.00in /  0mm
06:49 57.7 °F /  14.3 °C 54.2 °F /  12.3 °C 29.93in /  1013.4hPa Calm     88% 0.00in /  0mm
06:54 58.1 °F /  14.5 °C 53.9 °F /  12.2 °C 29.94in /  1013.8hPa Calm     86% 0.00in /  0mm
06:55 58.1 °F /  14.5 °C 53.9 °F /  12.2 °C 29.94in /  1013.8hPa Calm     86% 0.00in /  0mm
07:00 58.3 °F /  14.6 °C 53.8 °F /  12.1 °C 29.94in /  1013.8hPa Calm     85% 0.00in /  0mm
07:05 58.7 °F /  14.8 °C 54.2 °F /  12.3 °C 29.94in /  1013.8hPa Calm     85% 0.00in /  0mm
07:10 59.2 °F /  15.1 °C 54.4 °F /  12.4 °C 29.94in /  1013.8hPa Calm     84% 0.00in /  0mm
07:15 59.3 °F /  15.2 °C 54.5 °F /  12.5 °C 29.94in /  1013.8hPa Calm     84% 0.00in /  0mm
07:20 59.4 °F /  15.2 °C 54.6 °F /  12.6 °C 29.94in /  1013.8hPa Calm     84% 0.00in /  0mm
07:25 59.7 °F /  15.4 °C 54.5 °F /  12.5 °C 29.94in /  1013.8hPa Calm     83% 0.00in /  0mm
07:30 60.7 °F /  15.9 °C 55.5 °F /  13.1 °C 29.94in /  1013.8hPa Calm     83% 0.00in /  0mm
07:35 61.9 °F /  16.6 °C 56.0 °F /  13.3 °C 29.94in /  1013.8hPa Calm     81% 0.00in /  0mm
07:40 63.1 °F /  17.3 °C 56.5 °F /  13.6 °C 29.95in /  1014.1hPa Calm     79% 0.00in /  0mm
07:45 63.9 °F /  17.7 °C 57.3 °F /  14.1 °C 29.95in /  1014.1hPa Calm     79% 0.00in /  0mm
07:50 64.5 °F /  18.1 °C 57.5 °F /  14.2 °C 29.95in /  1014.1hPa Calm     78% 0.00in /  0mm
07:55 65.0 °F /  18.3 °C 58.0 °F /  14.4 °C 29.95in /  1014.1hPa Calm     78% 0.00in /  0mm
08:00 65.4 °F /  18.6 °C 58.4 °F /  14.7 °C 29.95in /  1014.1hPa Calm     78% 0.00in /  0mm
08:05 65.8 °F /  18.8 °C 58.0 °F /  14.4 °C 29.95in /  1014.1hPa Calm   1.0mph /  1.6km/h 76% 0.00in /  0mm
08:10 66.4 °F /  19.1 °C 59.0 °F /  15 °C 29.95in /  1014.1hPa Calm   1.0mph /  1.6km/h 77% 0.00in /  0mm
08:15 67.0 °F /  19.4 °C 59.2 °F /  15.1 °C 29.95in /  1014.1hPa Calm   1.0mph /  1.6km/h 76% 0.00in /  0mm
08:20 67.7 °F /  19.8 °C 59.1 °F /  15.1 °C 29.95in /  1014.1hPa Calm   1.0mph /  1.6km/h 74% 0.00in /  0mm
08:25 68.3 °F /  20.2 °C 59.7 °F /  15.4 °C 29.96in /  1014.4hPa NNW 1.0mph /  1.6km/h 1.0mph /  1.6km/h 74% 0.00in /  0mm
08:30 68.2 °F /  20.1 °C 60.3 °F /  15.7 °C 29.96in /  1014.4hPa NNW 1.0mph /  1.6km/h 1.0mph /  1.6km/h 76% 0.00in /  0mm
08:35 68.2 °F /  20.1 °C 60.0 °F /  15.6 °C 29.96in /  1014.4hPa Calm   1.0mph /  1.6km/h 75% 0.00in /  0mm
08:40 68.7 °F /  20.4 °C 61.2 °F /  16.2 °C 29.96in /  1014.4hPa Calm   1.0mph /  1.6km/h 77% 0.00in /  0mm
08:45 69.0 °F /  20.6 °C 60.4 °F /  15.8 °C 29.96in /  1014.4hPa NW 2.0mph /  3.2km/h 2.0mph /  3.2km/h 74% 0.00in /  0mm
08:50 69.1 °F /  20.6 °C 60.1 °F /  15.6 °C 29.96in /  1014.4hPa WNW 2.0mph /  3.2km/h 2.0mph /  3.2km/h 73% 0.00in /  0mm
08:55 69.4 °F /  20.8 °C 60.8 °F /  16 °C 29.95in /  1014.1hPa WNW 1.0mph /  1.6km/h 3.0mph /  4.8km/h 74% 0.00in /  0mm
09:00 70.0 °F /  21.1 °C 61.0 °F /  16.1 °C 29.96in /  1014.4hPa NW 2.0mph /  3.2km/h 2.0mph /  3.2km/h 73% 0.00in /  0mm
09:05 70.5 °F /  21.4 °C 61.0 °F /  16.1 °C 29.96in /  1014.4hPa WNW 1.0mph /  1.6km/h 2.0mph /  3.2km/h 72% 0.00in /  0mm
09:10 70.9 °F /  21.6 °C 60.2 °F /  15.7 °C 29.96in /  1014.4hPa West 2.0mph /  3.2km/h 4.0mph /  6.4km/h 69% 0.00in /  0mm
09:15 71.4 °F /  21.9 °C 61.1 °F /  16.2 °C 29.96in /  1014.4hPa WNW 1.0mph /  1.6km/h 2.0mph /  3.2km/h 70% 0.00in /  0mm
09:20 71.9 °F /  22.2 °C 61.2 °F /  16.2 °C 29.96in /  1014.4hPa WNW 3.0mph /  4.8km/h 3.0mph /  4.8km/h 69% 0.00in /  0mm
09:26 72.3 °F /  22.4 °C 60.7 °F /  15.9 °C 29.96in /  1014.4hPa WNW 2.0mph /  3.2km/h 4.0mph /  6.4km/h 67% 0.00in /  0mm
09:31 73.0 °F /  22.8 °C 61.4 °F /  16.3 °C 29.96in /  1014.4hPa Calm   1.0mph /  1.6km/h 67% 0.00in /  0mm
09:36 73.6 °F /  23.1 °C 61.1 °F /  16.2 °C 29.96in /  1014.4hPa NW 2.0mph /  3.2km/h 3.0mph /  4.8km/h 65% 0.00in /  0mm
09:41 74.0 °F /  23.3 °C 59.7 °F /  15.4 °C 29.96in /  1014.4hPa NNW 3.0mph /  4.8km/h 3.0mph /  4.8km/h 61% 0.00in /  0mm
09:46 74.4 °F /  23.6 °C 59.2 °F /  15.1 °C 29.96in /  1014.4hPa NW 2.0mph /  3.2km/h 3.0mph /  4.8km/h 59% 0.00in /  0mm
09:51 74.8 °F /  23.8 °C 59.5 °F /  15.3 °C 29.96in /  1014.4hPa WNW 1.0mph /  1.6km/h 3.0mph /  4.8km/h 59% 0.00in /  0mm
09:56 75.3 °F /  24.1 °C 61.8 °F /  16.6 °C 29.95in /  1014.1hPa West 2.0mph /  3.2km/h 3.0mph /  4.8km/h 63% 0.00in /  0mm
10:01 75.7 °F /  24.3 °C 60.8 °F /  16 °C 29.96in /  1014.4hPa WNW 3.0mph /  4.8km/h 3.0mph /  4.8km/h 60% 0.00in /  0mm
10:06 75.8 °F /  24.3 °C 59.5 °F /  15.3 °C 29.96in /  1014.4hPa WNW 1.0mph /  1.6km/h 4.0mph /  6.4km/h 57% 0.00in /  0mm
10:11 75.9 °F /  24.4 °C 58.6 °F /  14.8 °C 29.96in /  1014.4hPa NW 3.0mph /  4.8km/h 3.0mph /  4.8km/h 55% 0.00in /  0mm
10:16 76.3 °F /  24.6 °C 59.0 °F /  15 °C 29.96in /  1014.4hPa Calm   3.0mph /  4.8km/h 55% 0.00in /  0mm
10:21 77.0 °F /  25 °C 58.0 °F /  14.4 °C 29.96in /  1014.4hPa Calm   2.0mph /  3.2km/h 52% 0.00in /  0mm
10:26 77.6 °F /  25.3 °C 58.1 °F /  14.5 °C 29.96in /  1014.4hPa NW 1.0mph /  1.6km/h 2.0mph /  3.2km/h 51% 0.00in /  0mm
10:31 78.2 °F /  25.7 °C 58.1 °F /  14.5 °C 29.96in /  1014.4hPa NNW 1.0mph /  1.6km/h 4.0mph /  6.4km/h 50% 0.00in /  0mm
10:36 78.4 °F /  25.8 °C 59.9 °F /  15.5 °C 29.96in /  1014.4hPa WNW 2.0mph /  3.2km/h 5.0mph /  8km/h 53% 0.00in /  0mm
10:41 78.4 °F /  25.8 °C 59.9 °F /  15.5 °C 29.96in /  1014.4hPa NW 2.0mph /  3.2km/h 4.0mph /  6.4km/h 53% 0.00in /  0mm
10:46 78.5 °F /  25.8 °C 58.3 °F /  14.6 °C 29.96in /  1014.4hPa WNW 2.0mph /  3.2km/h 3.0mph /  4.8km/h 50% 0.00in /  0mm
10:51 78.8 °F /  26 °C 58.6 °F /  14.8 °C 29.95in /  1014.1hPa Calm   2.0mph /  3.2km/h 50% 0.00in /  0mm
10:56 79.3 °F /  26.3 °C 56.1 °F /  13.4 °C 29.95in /  1014.1hPa NE 2.0mph /  3.2km/h 3.0mph /  4.8km/h 45% 0.00in /  0mm
11:01 79.1 °F /  26.2 °C 57.2 °F /  14 °C 29.95in /  1014.1hPa NE 2.0mph /  3.2km/h 4.0mph /  6.4km/h 47% 0.00in /  0mm
11:06 79.3 °F /  26.3 °C 57.3 °F /  14.1 °C 29.95in /  1014.1hPa NW 1.0mph /  1.6km/h 3.0mph /  4.8km/h 47% 0.00in /  0mm
11:11 79.4 °F /  26.3 °C 56.8 °F /  13.8 °C 29.95in /  1014.1hPa NNE 2.0mph /  3.2km/h 2.0mph /  3.2km/h 46% 0.00in /  0mm
11:16 79.9 °F /  26.6 °C 59.0 °F /  15 °C 29.95in /  1014.1hPa NE 1.0mph /  1.6km/h 2.0mph /  3.2km/h 49% 0.00in /  0mm
11:22 79.7 °F /  26.5 °C 55.9 °F /  13.3 °C 29.95in /  1014.1hPa NNE 2.0mph /  3.2km/h 4.0mph /  6.4km/h 44% 0.00in /  0mm
11:27 80.0 °F /  26.7 °C 57.4 °F /  14.1 °C 29.95in /  1014.1hPa NNW 1.0mph /  1.6km/h 4.0mph /  6.4km/h 46% 0.00in /  0mm
11:32 80.1 °F /  26.7 °C 57.5 °F /  14.2 °C 29.95in /  1014.1hPa West 2.0mph /  3.2km/h 4.0mph /  6.4km/h 46% 0.00in /  0mm
11:37 80.2 °F /  26.8 °C 57.0 °F /  13.9 °C 29.95in /  1014.1hPa NNW 2.0mph /  3.2km/h 3.0mph /  4.8km/h 45% 0.00in /  0mm
11:42 80.5 °F /  26.9 °C 58.4 °F /  14.7 °C 29.95in /  1014.1hPa WNW 2.0mph /  3.2km/h 3.0mph /  4.8km/h 47% 0.00in /  0mm
11:47 80.5 °F /  26.9 °C 57.8 °F /  14.3 °C 29.95in /  1014.1hPa NW 2.0mph /  3.2km/h 4.0mph /  6.4km/h 46% 0.00in /  0mm
11:52 80.8 °F /  27.1 °C 58.1 °F /  14.5 °C 29.95in /  1014.1hPa NNE 3.0mph /  4.8km/h 4.0mph /  6.4km/h 46% 0.00in /  0mm
11:57 80.7 °F /  27.1 °C 58.6 °F /  14.8 °C 29.95in /  1014.1hPa NE 4.0mph /  6.4km/h 7.0mph /  11.3km/h 47% 0.00in /  0mm
12:02 80.2 °F /  26.8 °C 58.2 °F /  14.6 °C 29.95in /  1014.1hPa NE 5.0mph /  8km/h 5.0mph /  8km/h 47% 0.00in /  0mm
12:07 80.5 °F /  26.9 °C 59.0 °F /  15 °C 29.95in /  1014.1hPa ESE 2.0mph /  3.2km/h 5.0mph /  8km/h 48% 0.00in /  0mm
12:12 81.1 °F /  27.3 °C 59.0 °F /  15 °C 29.95in /  1014.1hPa ESE 1.0mph /  1.6km/h 3.0mph /  4.8km/h 47% 0.00in /  0mm
12:17 81.2 °F /  27.3 °C 58.5 °F /  14.7 °C 29.95in /  1014.1hPa NE 3.0mph /  4.8km/h 5.0mph /  8km/h 46% 0.00in /  0mm
12:22 81.1 °F /  27.3 °C 57.8 °F /  14.3 °C 29.95in /  1014.1hPa NW 4.0mph /  6.4km/h 5.0mph /  8km/h 45% 0.00in /  0mm
12:27 81.5 °F /  27.5 °C 59.9 °F /  15.5 °C 29.95in /  1014.1hPa East 1.0mph /  1.6km/h 2.0mph /  3.2km/h 48% 0.00in /  0mm
12:32 81.5 °F /  27.5 °C 58.8 °F /  14.9 °C 29.95in /  1014.1hPa NNE 4.0mph /  6.4km/h 7.0mph /  11.3km/h 46% 0.00in /  0mm
12:37 81.4 °F /  27.4 °C 58.7 °F /  14.8 °C 29.95in /  1014.1hPa East 7.0mph /  11.3km/h 7.0mph /  11.3km/h 46% 0.00in /  0mm
12:42 81.2 °F /  27.3 °C 57.9 °F /  14.4 °C 29.95in /  1014.1hPa NE 6.0mph /  9.7km/h 6.0mph /  9.7km/h 45% 0.00in /  0mm
12:44 81.2 °F /  27.3 °C 56.6 °F /  13.7 °C 29.95in /  1014.1hPa NE 4.0mph /  6.4km/h 6.0mph /  9.7km/h 43% 0.00in /  0mm
12:49 81.1 °F /  27.3 °C 59.6 °F /  15.3 °C 29.95in /  1014.1hPa ESE 5.0mph /  8km/h 6.0mph /  9.7km/h 48% 0.00in /  0mm
12:50 81.1 °F /  27.3 °C 57.2 °F /  14 °C 29.95in /  1014.1hPa East 3.0mph /  4.8km/h 6.0mph /  9.7km/h 44% 0.00in /  0mm
12:51 81.2 °F /  27.3 °C 57.9 °F /  14.4 °C 29.94in /  1013.8hPa SE 1.0mph /  1.6km/h 6.0mph /  9.7km/h 45% 0.00in /  0mm
12:56 81.7 °F /  27.6 °C 58.3 °F /  14.6 °C 29.94in /  1013.8hPa East 5.0mph /  8km/h 10.0mph /  16.1km/h 45% 0.00in /  0mm
12:59 81.8 °F /  27.7 °C 57.8 °F /  14.3 °C 29.94in /  1013.8hPa ESE 8.0mph /  12.9km/h 8.0mph /  12.9km/h 44% 0.00in /  0mm
13:00 81.7 °F /  27.6 °C 57.0 °F /  13.9 °C 29.94in /  1013.8hPa SE 4.0mph /  6.4km/h 9.0mph /  14.5km/h 43% 0.00in /  0mm
13:05 81.9 °F /  27.7 °C 59.1 °F /  15.1 °C 29.94in /  1013.8hPa SSE 6.0mph /  9.7km/h 8.0mph /  12.9km/h 46% 0.00in /  0mm
13:10 81.7 °F /  27.6 °C 57.0 °F /  13.9 °C 29.94in /  1013.8hPa South 2.0mph /  3.2km/h 8.0mph /  12.9km/h 43% 0.00in /  0mm
13:15 82.0 °F /  27.8 °C 56.7 °F /  13.7 °C 29.94in /  1013.8hPa Calm   2.0mph /  3.2km/h 42% 0.00in /  0mm
13:20 82.7 °F /  28.2 °C 59.8 °F /  15.4 °C 29.94in /  1013.8hPa SW 2.0mph /  3.2km/h 6.0mph /  9.7km/h 46% 0.00in /  0mm
13:25 83.3 °F /  28.5 °C 59.1 °F /  15.1 °C 29.94in /  1013.8hPa ESE 3.0mph /  4.8km/h 4.0mph /  6.4km/h 44% 0.00in /  0mm
13:30 83.2 °F /  28.4 °C 57.8 °F /  14.3 °C 29.94in /  1013.8hPa ESE 3.0mph /  4.8km/h 6.0mph /  9.7km/h 42% 0.00in /  0mm
13:36 82.8 °F /  28.2 °C 58.0 °F /  14.4 °C 29.94in /  1013.8hPa East 3.0mph /  4.8km/h 5.0mph /  8km/h 43% 0.00in /  0mm
13:41 82.9 °F /  28.3 °C 56.8 °F /  13.8 °C 29.93in /  1013.4hPa ENE 3.0mph /  4.8km/h 5.0mph /  8km/h 41% 0.00in /  0mm
13:46 82.8 °F /  28.2 °C 59.3 °F /  15.2 °C 29.93in /  1013.4hPa SE 3.0mph /  4.8km/h 9.0mph /  14.5km/h 45% 0.00in /  0mm
13:51 82.8 °F /  28.2 °C 56.7 °F /  13.7 °C 29.93in /  1013.4hPa East 4.0mph /  6.4km/h 7.0mph /  11.3km/h 41% 0.00in /  0mm
13:56 82.5 °F /  28.1 °C 57.1 °F /  13.9 °C 29.93in /  1013.4hPa North 3.0mph /  4.8km/h 8.0mph /  12.9km/h 42% 0.00in /  0mm
14:01 82.7 °F /  28.2 °C 58.6 °F /  14.8 °C 29.93in /  1013.4hPa SSE 4.0mph /  6.4km/h 7.0mph /  11.3km/h 44% 0.00in /  0mm
14:06 83.2 °F /  28.4 °C 58.4 °F /  14.7 °C 29.93in /  1013.4hPa SSE 4.0mph /  6.4km/h 8.0mph /  12.9km/h 43% 0.00in /  0mm
14:11 83.3 °F /  28.5 °C 58.5 °F /  14.7 °C 29.92in /  1013.1hPa SSE 2.0mph /  3.2km/h 8.0mph /  12.9km/h 43% 0.00in /  0mm
14:16 83.6 °F /  28.7 °C 58.1 °F /  14.5 °C 29.92in /  1013.1hPa ESE 2.0mph /  3.2km/h 11.0mph /  17.7km/h 42% 0.00in /  0mm
14:21 83.0 °F /  28.3 °C 57.6 °F /  14.2 °C 29.92in /  1013.1hPa SE 3.0mph /  4.8km/h 7.0mph /  11.3km/h 42% 0.00in /  0mm
14:26 82.8 °F /  28.2 °C 57.4 °F /  14.1 °C 29.92in /  1013.1hPa ENE 4.0mph /  6.4km/h 5.0mph /  8km/h 42% 0.00in /  0mm
14:31 82.5 °F /  28.1 °C 57.1 °F /  13.9 °C 29.92in /  1013.1hPa NNE 3.0mph /  4.8km/h 4.0mph /  6.4km/h 42% 0.00in /  0mm
14:36 82.0 °F /  27.8 °C 58.0 °F /  14.4 °C 29.92in /  1013.1hPa East 1.0mph /  1.6km/h 4.0mph /  6.4km/h 44% 0.00in /  0mm
14:41 81.9 °F /  27.7 °C 59.1 °F /  15.1 °C 29.92in /  1013.1hPa SSE 2.0mph /  3.2km/h 2.0mph /  3.2km/h 46% 0.00in /  0mm
14:46 81.7 °F /  27.6 °C 57.7 °F /  14.3 °C 29.92in /  1013.1hPa East 1.0mph /  1.6km/h 1.0mph /  1.6km/h 44% 0.00in /  0mm
14:51 81.4 °F /  27.4 °C 58.7 °F /  14.8 °C 29.92in /  1013.1hPa NE 1.0mph /  1.6km/h 3.0mph /  4.8km/h 46% 0.00in /  0mm
14:56 81.2 °F /  27.3 °C 59.1 °F /  15.1 °C 29.92in /  1013.1hPa NE 2.0mph /  3.2km/h 2.0mph /  3.2km/h 47% 0.00in /  0mm
15:01 81.0 °F /  27.2 °C 58.9 °F /  14.9 °C 29.92in /  1013.1hPa ENE 3.0mph /  4.8km/h 5.0mph /  8km/h 47% 0.00in /  0mm
15:06 81.0 °F /  27.2 °C 58.3 °F /  14.6 °C 29.92in /  1013.1hPa ESE 1.0mph /  1.6km/h 4.0mph /  6.4km/h 46% 0.00in /  0mm
15:11 81.2 °F /  27.3 °C 60.2 °F /  15.7 °C 29.92in /  1013.1hPa SE 1.0mph /  1.6km/h 2.0mph /  3.2km/h 49% 0.00in /  0mm
15:16 81.4 °F /  27.4 °C 58.7 °F /  14.8 °C 29.92in /  1013.1hPa ESE 1.0mph /  1.6km/h 2.0mph /  3.2km/h 46% 0.00in /  0mm
15:21 81.6 °F /  27.6 °C 59.4 °F /  15.2 °C 29.92in /  1013.1hPa North 2.0mph /  3.2km/h 2.0mph /  3.2km/h 47% 0.00in /  0mm
15:26 81.7 °F /  27.6 °C 59.5 °F /  15.3 °C 29.92in /  1013.1hPa NNE 1.0mph /  1.6km/h 2.0mph /  3.2km/h 47% 0.00in /  0mm
15:32 82.0 °F /  27.8 °C 60.4 °F /  15.8 °C 29.91in /  1012.8hPa ESE 3.0mph /  4.8km/h 5.0mph /  8km/h 48% 0.00in /  0mm
15:37 82.4 °F /  28 °C 59.0 °F /  15 °C 29.91in /  1012.8hPa SSE 2.0mph /  3.2km/h 5.0mph /  8km/h 45% 0.00in /  0mm
15:42 82.3 °F /  27.9 °C 58.2 °F /  14.6 °C 29.91in /  1012.8hPa ESE 2.0mph /  3.2km/h 2.0mph /  3.2km/h 44% 0.00in /  0mm
15:47 82.2 °F /  27.9 °C 59.4 °F /  15.2 °C 29.91in /  1012.8hPa ESE 3.0mph /  4.8km/h 6.0mph /  9.7km/h 46% 0.00in /  0mm
15:52 81.9 °F /  27.7 °C 57.9 °F /  14.4 °C 29.91in /  1012.8hPa SE 1.0mph /  1.6km/h 2.0mph /  3.2km/h 44% 0.00in /  0mm
15:57 82.0 °F /  27.8 °C 58.6 °F /  14.8 °C 29.91in /  1012.8hPa Calm   1.0mph /  1.6km/h 45% 0.00in /  0mm
16:02 82.1 °F /  27.8 °C 58.0 °F /  14.4 °C 29.91in /  1012.8hPa SE 2.0mph /  3.2km/h 4.0mph /  6.4km/h 44% 0.00in /  0mm
16:07 81.8 °F /  27.7 °C 56.5 °F /  13.6 °C 29.91in /  1012.8hPa SSE 2.0mph /  3.2km/h 4.0mph /  6.4km/h 42% 0.00in /  0mm
16:12 81.9 °F /  27.7 °C 58.5 °F /  14.7 °C 29.91in /  1012.8hPa SE 1.0mph /  1.6km/h 2.0mph /  3.2km/h 45% 0.00in /  0mm
16:17 81.7 °F /  27.6 °C 57.0 °F /  13.9 °C 29.90in /  1012.4hPa SSE 1.0mph /  1.6km/h 4.0mph /  6.4km/h 43% 0.00in /  0mm
16:22 81.8 °F /  27.7 °C 59.0 °F /  15 °C 29.90in /  1012.4hPa NE 3.0mph /  4.8km/h 3.0mph /  4.8km/h 46% 0.00in /  0mm
16:27 82.4 °F /  28 °C 58.3 °F /  14.6 °C 29.90in /  1012.4hPa ENE 1.0mph /  1.6km/h 2.0mph /  3.2km/h 44% 0.00in /  0mm
16:32 83.0 °F /  28.3 °C 58.2 °F /  14.6 °C 29.90in /  1012.4hPa SSE 2.0mph /  3.2km/h 5.0mph /  8km/h 43% 0.00in /  0mm
16:37 83.6 °F /  28.7 °C 60.0 °F /  15.6 °C 29.89in /  1012.1hPa East 6.0mph /  9.7km/h 6.0mph /  9.7km/h 45% 0.00in /  0mm
16:42 83.5 °F /  28.6 °C 58.0 °F /  14.4 °C 29.89in /  1012.1hPa SSE 3.0mph /  4.8km/h 8.0mph /  12.9km/h 42% 0.00in /  0mm
16:47 84.0 °F /  28.9 °C 57.8 °F /  14.3 °C 29.89in /  1012.1hPa SE 4.0mph /  6.4km/h 4.0mph /  6.4km/h 41% 0.00in /  0mm
16:52 83.8 °F /  28.8 °C 60.8 °F /  16 °C 29.89in /  1012.1hPa ESE 6.0mph /  9.7km/h 7.0mph /  11.3km/h 46% 0.00in /  0mm
16:57 83.9 °F /  28.8 °C 58.4 °F /  14.7 °C 29.89in /  1012.1hPa ESE 5.0mph /  8km/h 5.0mph /  8km/h 42% 0.00in /  0mm
17:02 83.7 °F /  28.7 °C 58.2 °F /  14.6 °C 29.89in /  1012.1hPa WNW 3.0mph /  4.8km/h 4.0mph /  6.4km/h 42% 0.00in /  0mm
17:07 83.2 °F /  28.4 °C 57.8 °F /  14.3 °C 29.89in /  1012.1hPa West 2.0mph /  3.2km/h 4.0mph /  6.4km/h 42% 0.00in /  0mm
17:12 82.5 °F /  28.1 °C 58.4 °F /  14.7 °C 29.89in /  1012.1hPa WSW 2.0mph /  3.2km/h 3.0mph /  4.8km/h 44% 0.00in /  0mm
17:17 81.9 °F /  27.7 °C 57.9 °F /  14.4 °C 29.89in /  1012.1hPa West 2.0mph /  3.2km/h 3.0mph /  4.8km/h 44% 0.00in /  0mm
17:22 81.5 °F /  27.5 °C 59.9 °F /  15.5 °C 29.89in /  1012.1hPa WNW 2.0mph /  3.2km/h 2.0mph /  3.2km/h 48% 0.00in /  0mm
17:27 80.6 °F /  27 °C 60.8 °F /  16 °C 29.89in /  1012.1hPa NNW 2.0mph /  3.2km/h 4.0mph /  6.4km/h 51% 0.00in /  0mm
17:32 79.6 °F /  26.4 °C 61.0 °F /  16.1 °C 29.89in /  1012.1hPa NNW 3.0mph /  4.8km/h 3.0mph /  4.8km/h 53% 0.00in /  0mm
17:37 78.3 °F /  25.7 °C 61.8 °F /  16.6 °C 29.90in /  1012.4hPa NW 6.0mph /  9.7km/h 14.0mph /  22.5km/h 57% 0.00in /  0mm
17:43 74.5 °F /  23.6 °C 62.0 °F /  16.7 °C 29.90in /  1012.4hPa NW 13.0mph /  20.9km/h 15.0mph /  24.1km/h 65% 0.00in /  0mm
17:47 73.0 °F /  22.8 °C 61.0 °F /  16.1 °C 29.91in /  1012.8hPa WNW 6.0mph /  9.7km/h 12.0mph /  19.3km/h 66% 0.98in /  24.89mm
17:53 71.2 °F /  21.8 °C 62.1 °F /  16.7 °C 29.91in /  1012.8hPa West 9.0mph /  14.5km/h 10.0mph /  16.1km/h 73% 2.24in /  56.9mm
17:58 71.3 °F /  21.8 °C 61.0 °F /  16.1 °C 29.91in /  1012.8hPa West 6.0mph /  9.7km/h 10.0mph /  16.1km/h 70% 2.52in /  64.01mm
18:03 71.8 °F /  22.1 °C 59.4 °F /  15.2 °C 29.90in /  1012.4hPa West 8.0mph /  12.9km/h 12.0mph /  19.3km/h 65% 0.42in /  10.67mm
18:08 70.5 °F /  21.4 °C 61.4 °F /  16.3 °C 29.90in /  1012.4hPa West 4.0mph /  6.4km/h 7.0mph /  11.3km/h 73% 0.09in /  2.29mm
18:13 70.7 °F /  21.5 °C 62.0 °F /  16.7 °C 29.90in /  1012.4hPa WSW 5.0mph /  8km/h 8.0mph /  12.9km/h 74% 0.09in /  2.29mm
18:18 71.1 °F /  21.7 °C 63.9 °F /  17.7 °C 29.90in /  1012.4hPa West 4.0mph /  6.4km/h 6.0mph /  9.7km/h 78% 0.06in /  1.52mm
18:23 71.9 °F /  22.2 °C 65.4 °F /  18.6 °C 29.90in /  1012.4hPa WNW 5.0mph /  8km/h 5.0mph /  8km/h 80% 0.04in /  1.02mm
18:28 72.5 °F /  22.5 °C 64.9 °F /  18.3 °C 29.90in /  1012.4hPa SSW 1.0mph /  1.6km/h 4.0mph /  6.4km/h 77% 0.00in /  0mm
18:33 72.7 °F /  22.6 °C 64.7 °F /  18.2 °C 29.90in /  1012.4hPa East 5.0mph /  8km/h 5.0mph /  8km/h 76% 0.00in /  0mm
18:38 72.2 °F /  22.3 °C 64.2 °F /  17.9 °C 29.90in /  1012.4hPa ESE 2.0mph /  3.2km/h 3.0mph /  4.8km/h 76% 0.00in /  0mm
18:43 72.2 °F /  22.3 °C 63.5 °F /  17.5 °C 29.89in /  1012.1hPa Calm   1.0mph /  1.6km/h 74% 0.00in /  0mm
18:48 72.3 °F /  22.4 °C 64.3 °F /  17.9 °C 29.89in /  1012.1hPa East 1.0mph /  1.6km/h 2.0mph /  3.2km/h 76% 0.00in /  0mm
18:53 72.3 °F /  22.4 °C 64.7 °F /  18.2 °C 29.89in /  1012.1hPa Calm   1.0mph /  1.6km/h 77% 0.00in /  0mm
18:58 72.3 °F /  22.4 °C 66.2 °F /  19 °C 29.89in /  1012.1hPa Calm   1.0mph /  1.6km/h 81% 0.00in /  0mm
19:03 71.8 °F /  22.1 °C 64.9 °F /  18.3 °C 29.89in /  1012.1hPa Calm     79% 0.00in /  0mm
19:08 71.5 °F /  21.9 °C 66.4 °F /  19.1 °C 29.89in /  1012.1hPa Calm     84% 0.00in /  0mm
19:13 71.0 °F /  21.7 °C 66.6 °F /  19.2 °C 29.89in /  1012.1hPa East 1.0mph /  1.6km/h 1.0mph /  1.6km/h 86% 0.00in /  0mm
19:18 70.6 °F /  21.4 °C 66.9 °F /  19.4 °C 29.89in /  1012.1hPa NNW 1.0mph /  1.6km/h 1.0mph /  1.6km/h 88% 0.00in /  0mm
19:23 70.1 °F /  21.2 °C 67.0 °F /  19.4 °C 29.89in /  1012.1hPa NNW 1.0mph /  1.6km/h 1.0mph /  1.6km/h 90% 0.00in /  0mm
19:28 69.7 °F /  20.9 °C 66.6 °F /  19.2 °C 29.89in /  1012.1hPa Calm     90% 0.00in /  0mm
19:33 68.9 °F /  20.5 °C 65.8 °F /  18.8 °C 29.90in /  1012.4hPa NNE 2.0mph /  3.2km/h 2.0mph /  3.2km/h 90% 0.00in /  0mm
19:38 68.6 °F /  20.3 °C 63.9 °F /  17.7 °C 29.90in /  1012.4hPa NNE 2.0mph /  3.2km/h 2.0mph /  3.2km/h 85% 0.00in /  0mm
19:43 69.6 °F /  20.9 °C 64.9 °F /  18.3 °C 29.90in /  1012.4hPa NNW 2.0mph /  3.2km/h 4.0mph /  6.4km/h 85% 0.00in /  0mm
19:48 69.1 °F /  20.6 °C 64.4 °F /  18 °C 29.90in /  1012.4hPa Calm   2.0mph /  3.2km/h 85% 0.00in /  0mm
19:53 69.0 °F /  20.6 °C 64.6 °F /  18.1 °C 29.90in /  1012.4hPa North 2.0mph /  3.2km/h 2.0mph /  3.2km/h 86% 0.00in /  0mm
19:58 68.8 °F /  20.4 °C 64.4 °F /  18 °C 29.89in /  1012.1hPa Calm     86% 0.00in /  0mm
20:03 69.0 °F /  20.6 °C 64.0 °F /  17.8 °C 29.89in /  1012.1hPa NNE 1.0mph /  1.6km/h 1.0mph /  1.6km/h 84% 0.00in /  0mm
20:08 69.5 °F /  20.8 °C 64.1 °F /  17.8 °C 29.89in /  1012.1hPa NNE 2.0mph /  3.2km/h 2.0mph /  3.2km/h 83% 0.00in /  0mm
20:13 69.9 °F /  21.1 °C 63.8 °F /  17.7 °C 29.89in /  1012.1hPa NE 2.0mph /  3.2km/h 2.0mph /  3.2km/h 81% 0.00in /  0mm
20:18 70.1 °F /  21.2 °C 63.3 °F /  17.4 °C 29.89in /  1012.1hPa NE 1.0mph /  1.6km/h 1.0mph /  1.6km/h 79% 0.00in /  0mm
20:23 70.2 °F /  21.2 °C 64.8 °F /  18.2 °C 29.89in /  1012.1hPa Calm     83% 0.00in /  0mm
20:28 69.7 °F /  20.9 °C 64.7 °F /  18.2 °C 29.89in /  1012.1hPa Calm     84% 0.00in /  0mm
20:33 69.3 °F /  20.7 °C 64.9 °F /  18.3 °C 29.90in /  1012.4hPa NNE 1.0mph /  1.6km/h 1.0mph /  1.6km/h 86% 0.00in /  0mm
20:38 68.7 °F /  20.4 °C 64.7 °F /  18.2 °C 29.90in /  1012.4hPa NNE 1.0mph /  1.6km/h 1.0mph /  1.6km/h 87% 0.00in /  0mm
20:43 68.1 °F /  20.1 °C 64.7 °F /  18.2 °C 29.90in /  1012.4hPa Calm   1.0mph /  1.6km/h 89% 0.00in /  0mm
20:48 67.8 °F /  19.9 °C 64.8 °F /  18.2 °C 29.90in /  1012.4hPa Calm     90% 0.00in /  0mm
20:53 67.6 °F /  19.8 °C 64.6 °F /  18.1 °C 29.90in /  1012.4hPa NNE 1.0mph /  1.6km/h 1.0mph /  1.6km/h 90% 0.00in /  0mm
20:58 67.7 °F /  19.8 °C 64.0 °F /  17.8 °C 29.90in /  1012.4hPa NNE 1.0mph /  1.6km/h 2.0mph /  3.2km/h 88% 0.00in /  0mm
21:03 68.0 °F /  20 °C 64.0 °F /  17.8 °C 29.91in /  1012.8hPa NE 2.0mph /  3.2km/h 4.0mph /  6.4km/h 87% 0.00in /  0mm
21:08 68.2 °F /  20.1 °C 63.5 °F /  17.5 °C 29.91in /  1012.8hPa Calm   4.0mph /  6.4km/h 85% 0.00in /  0mm
21:13 68.0 °F /  20 °C 63.7 °F /  17.6 °C 29.91in /  1012.8hPa WNW 1.0mph /  1.6km/h 1.0mph /  1.6km/h 86% 0.00in /  0mm
21:19 67.4 °F /  19.7 °C 63.4 °F /  17.4 °C 29.91in /  1012.8hPa Calm     87% 0.00in /  0mm
21:24 67.4 °F /  19.7 °C 63.7 °F /  17.6 °C 29.91in /  1012.8hPa NNE 1.0mph /  1.6km/h 2.0mph /  3.2km/h 88% 0.00in /  0mm
21:29 67.5 °F /  19.7 °C 63.2 °F /  17.3 °C 29.91in /  1012.8hPa NE 2.0mph /  3.2km/h 3.0mph /  4.8km/h 86% 0.00in /  0mm
21:34 68.0 °F /  20 °C 63.0 °F /  17.2 °C 29.91in /  1012.8hPa NE 2.0mph /  3.2km/h 3.0mph /  4.8km/h 84% 0.00in /  0mm
21:39 68.2 °F /  20.1 °C 62.8 °F /  17.1 °C 29.91in /  1012.8hPa North 1.0mph /  1.6km/h 2.0mph /  3.2km/h 83% 0.00in /  0mm
21:44 67.7 °F /  19.8 °C 62.7 °F /  17.1 °C 29.91in /  1012.8hPa Calm   2.0mph /  3.2km/h 84% 0.00in /  0mm
21:49 67.2 °F /  19.6 °C 62.5 °F /  16.9 °C 29.91in /  1012.8hPa NE 1.0mph /  1.6km/h 2.0mph /  3.2km/h 85% 0.00in /  0mm
21:54 67.6 °F /  19.8 °C 62.6 °F /  17 °C 29.92in /  1013.1hPa NNE 3.0mph /  4.8km/h 3.0mph /  4.8km/h 84% 0.00in /  0mm
21:59 68.2 °F /  20.1 °C 62.5 °F /  16.9 °C 29.92in /  1013.1hPa Calm   3.0mph /  4.8km/h 82% 0.00in /  0mm
22:04 68.2 °F /  20.1 °C 62.5 °F /  16.9 °C 29.92in /  1013.1hPa Calm   2.0mph /  3.2km/h 82% 0.00in /  0mm
22:09 68.2 °F /  20.1 °C 62.2 °F /  16.8 °C 29.92in /  1013.1hPa NE 2.0mph /  3.2km/h 3.0mph /  4.8km/h 81% 0.00in /  0mm
22:14 68.6 °F /  20.3 °C 62.2 °F /  16.8 °C 29.92in /  1013.1hPa NE 1.0mph /  1.6km/h 3.0mph /  4.8km/h 80% 0.00in /  0mm
22:19 68.9 °F /  20.5 °C 62.1 °F /  16.7 °C 29.92in /  1013.1hPa NE 3.0mph /  4.8km/h 3.0mph /  4.8km/h 79% 0.00in /  0mm
22:24 69.0 °F /  20.6 °C 61.9 °F /  16.6 °C 29.92in /  1013.1hPa NE 2.0mph /  3.2km/h 4.0mph /  6.4km/h 78% 0.00in /  0mm
22:29 69.1 °F /  20.6 °C 61.6 °F /  16.4 °C 29.92in /  1013.1hPa NE 2.0mph /  3.2km/h 3.0mph /  4.8km/h 77% 0.00in /  0mm
22:34 69.2 °F /  20.7 °C 61.7 °F /  16.5 °C 29.92in /  1013.1hPa NE 1.0mph /  1.6km/h 3.0mph /  4.8km/h 77% 0.00in /  0mm
22:39 69.4 °F /  20.8 °C 61.5 °F /  16.4 °C 29.92in /  1013.1hPa NE 2.0mph /  3.2km/h 3.0mph /  4.8km/h 76% 0.00in /  0mm
22:44 69.5 °F /  20.8 °C 61.2 °F /  16.2 °C 29.92in /  1013.1hPa NE 2.0mph /  3.2km/h 3.0mph /  4.8km/h 75% 0.00in /  0mm
22:49 69.4 °F /  20.8 °C 61.1 °F /  16.2 °C 29.93in /  1013.4hPa NNE 1.0mph /  1.6km/h 3.0mph /  4.8km/h 75% 0.00in /  0mm
22:54 69.3 °F /  20.7 °C 61.0 °F /  16.1 °C 29.93in /  1013.4hPa NNE 1.0mph /  1.6km/h 2.0mph /  3.2km/h 75% 0.00in /  0mm
22:59 69.4 °F /  20.8 °C 61.1 °F /  16.2 °C 29.93in /  1013.4hPa NNE 2.0mph /  3.2km/h 3.0mph /  4.8km/h 75% 0.00in /  0mm
23:04 69.4 °F /  20.8 °C 60.8 °F /  16 °C 29.93in /  1013.4hPa NE 2.0mph /  3.2km/h 2.0mph /  3.2km/h 74% 0.00in /  0mm
23:09 69.4 °F /  20.8 °C 60.8 °F /  16 °C 29.93in /  1013.4hPa Calm   2.0mph /  3.2km/h 74% 0.00in /  0mm
23:14 68.9 °F /  20.5 °C 60.7 °F /  15.9 °C 29.93in /  1013.4hPa Calm   1.0mph /  1.6km/h 75% 0.00in /  0mm
23:19 68.6 °F /  20.3 °C 60.4 °F /  15.8 °C 29.93in /  1013.4hPa NE 1.0mph /  1.6km/h 2.0mph /  3.2km/h 75% 0.00in /  0mm
23:24 68.5 °F /  20.3 °C 60.3 °F /  15.7 °C 29.93in /  1013.4hPa NE 1.0mph /  1.6km/h 1.0mph /  1.6km/h 75% 0.00in /  0mm
23:29 68.4 °F /  20.2 °C 60.5 °F /  15.8 °C 29.93in /  1013.4hPa NE 1.0mph /  1.6km/h 1.0mph /  1.6km/h 76% 0.00in /  0mm
23:35 68.1 °F /  20.1 °C 60.3 °F /  15.7 °C 29.93in /  1013.4hPa NE 2.0mph /  3.2km/h 2.0mph /  3.2km/h 76% 0.00in /  0mm
23:40 68.6 °F /  20.3 °C 60.0 °F /  15.6 °C 29.93in /  1013.4hPa NE 1.0mph /  1.6km/h 2.0mph /  3.2km/h 74% 0.00in /  0mm
23:45 68.7 °F /  20.4 °C 60.1 °F /  15.6 °C 29.94in /  1013.8hPa NE 1.0mph /  1.6km/h 1.0mph /  1.6km/h 74% 0.00in /  0mm
23:50 68.5 °F /  20.3 °C 59.9 °F /  15.5 °C 29.93in /  1013.4hPa NE 1.0mph /  1.6km/h 1.0mph /  1.6km/h 74% 0.00in /  0mm
23:55 68.4 °F /  20.2 °C 60.2 °F /  15.7 °C 29.94in /  1013.8hPa NE 2.0mph /  3.2km/h 2.0mph /  3.2km/h 75% 0.00in /  0mm
Compliments of Weather Underground